Pagina principale
METAR-TAF:

METAR-TAF

Aeroporti :

Aeroporto di Milano-Malpensa

Milano, Italia

latitudine: 45-37N, longitudine: 008-44E, altezza: 234 m

Osservazione

Il bollettino è stato emesso 18 minuti fa, alle 15:50 UTC
Vento 9 kt da ovest/sud-ovest, variando fra sud/sud-ovest e ovest
Temperature 25°C
Umidità 41%
Pressione 1017 hPa
Visibilità 10 km o più
nessuna nube inferiore a 1500 m e nessun cumulonembo

METAR: LIMC 231550Z 24009KT 210V270 CAVOK 25/11 Q1017 NOSIG

Ora: 18:08 (16:08 UTC)

Previsione

Il bollettino è stato emesso 5 ore e 8 minuti fa, alle 11:00 UTC
Previsione valida dal 23 alle 12 UTC al 24 alle 18 UTC
Vento 7 kt da sud-est
Visibilità 10 km o più
Nubi sparse ad un'altezza di 6000 ft

TAF: LIMC 231100Z 2312/2418 13007KT 9999 SCT060

Osservazioni e previsioni meteorologiche di più di 4000 aeroporti (messaggi METAR e TAF).

Le stazioni disponibili sono rappresentate dai dischi gialli e rossi sulla carta.

Puntare il mouse per vedere il nome della stazione.

Clicca sopra per visualizzare le osservazioni e previsioni meteorologiche.

Per cambiare la mappa : fare clic sui pulsanti verdi con una croce nera per ingrandire, il pulsante verde con un trattino per diminuire, o sulla freccia verde per le mappe adiacenti.


METAR-TAF: